createdAt,value
2022-08-31T00:02:42.299Z,10.68
2022-08-31T00:05:11.039Z,10.65
2022-08-31T00:07:38.210Z,10.52
2022-08-31T00:10:14.959Z,10.30
2022-08-31T00:12:43.198Z,9.48
2022-08-31T00:15:13.581Z,9.50
2022-08-31T00:17:41.471Z,8.85
2022-08-31T00:20:32.782Z,9.73
2022-08-31T00:22:58.306Z,7.72
2022-08-31T00:25:25.207Z,8.88
2022-08-31T00:27:52.290Z,9.20
2022-08-31T00:30:19.231Z,7.50
2022-08-31T00:32:46.033Z,10.02
2022-08-31T00:35:14.795Z,10.00
2022-08-31T00:37:41.585Z,8.10
2022-08-31T00:40:09.469Z,9.18
2022-08-31T00:42:36.388Z,9.27
2022-08-31T00:45:04.921Z,9.50
2022-08-31T00:47:32.127Z,8.90
2022-08-31T00:49:59.903Z,7.80
2022-08-31T00:52:37.974Z,7.90
2022-08-31T00:55:12.700Z,9.13
2022-08-31T00:57:43.500Z,9.38
2022-08-31T01:00:18.448Z,8.13
2022-08-31T01:02:46.232Z,8.02
2022-08-31T01:05:14.452Z,9.80
2022-08-31T01:07:42.209Z,9.05
2022-08-31T01:10:10.430Z,8.23
2022-08-31T01:12:37.589Z,8.75
2022-08-31T01:15:07.431Z,10.32
2022-08-31T01:17:38.345Z,9.38
2022-08-31T01:20:19.506Z,9.68
2022-08-31T01:22:52.259Z,8.65
2022-08-31T01:25:20.340Z,9.80
2022-08-31T01:27:47.657Z,8.35
2022-08-31T01:30:23.164Z,10.43
2022-08-31T01:32:50.171Z,8.18
2022-08-31T01:35:17.189Z,8.30
2022-08-31T01:37:44.323Z,8.70
2022-08-31T01:40:12.299Z,8.45
2022-08-31T01:42:39.130Z,8.25
2022-08-31T01:45:06.627Z,9.52
2022-08-31T01:47:33.436Z,9.68
2022-08-31T01:50:00.245Z,9.57
2022-08-31T01:52:28.186Z,8.25
2022-08-31T01:54:56.045Z,9.85
2022-08-31T01:57:33.478Z,9.65
2022-08-31T02:00:04.872Z,8.13
2022-08-31T02:02:32.282Z,8.63
2022-08-31T02:04:59.270Z,9.18
2022-08-31T02:07:27.075Z,9.68
2022-08-31T02:09:54.886Z,9.68
2022-08-31T02:12:21.754Z,10.60
2022-08-31T02:14:48.595Z,9.20
2022-08-31T02:17:15.744Z,9.18
2022-08-31T02:19:42.587Z,10.38
2022-08-31T02:22:09.458Z,8.10
2022-08-31T02:24:36.526Z,9.55
2022-08-31T02:27:03.678Z,8.95
2022-08-31T02:29:30.492Z,9.73
2022-08-31T02:31:58.682Z,10.13
2022-08-31T02:34:25.707Z,10.25
2022-08-31T02:36:52.676Z,9.80
2022-08-31T02:39:19.464Z,10.20
2022-08-31T02:41:47.353Z,7.70
2022-08-31T02:44:14.349Z,8.60
2022-08-31T02:46:41.081Z,8.30
2022-08-31T02:49:07.943Z,7.88
2022-08-31T02:51:34.780Z,8.40
2022-08-31T02:54:01.500Z,8.27
2022-08-31T02:56:28.268Z,7.88
2022-08-31T02:58:55.400Z,8.25
2022-08-31T03:01:24.063Z,8.68
2022-08-31T03:03:51.234Z,10.07
2022-08-31T03:06:19.904Z,9.80
2022-08-31T03:08:47.645Z,9.90
2022-08-31T03:11:15.059Z,8.35
2022-08-31T03:13:42.663Z,8.40
2022-08-31T03:16:13.367Z,8.70
2022-08-31T03:18:40.247Z,9.05
2022-08-31T03:21:07.016Z,8.68
2022-08-31T03:23:33.775Z,7.40
2022-08-31T03:26:00.674Z,9.43
2022-08-31T03:28:27.438Z,8.77
2022-08-31T03:30:54.316Z,8.10
2022-08-31T03:33:21.134Z,7.75
2022-08-31T03:35:47.889Z,8.55
2022-08-31T03:38:16.201Z,10.93
2022-08-31T03:40:44.283Z,13.60
2022-08-31T03:43:12.069Z,8.50
2022-08-31T03:45:40.604Z,8.70
2022-08-31T03:48:12.258Z,7.80
2022-08-31T03:50:40.795Z,8.43
2022-08-31T03:53:09.120Z,10.63
2022-08-31T03:55:39.415Z,9.70
2022-08-31T03:58:07.697Z,9.98
2022-08-31T04:00:35.295Z,10.40
2022-08-31T04:03:02.435Z,10.20
2022-08-31T04:05:31.192Z,9.15
2022-08-31T04:07:58.655Z,8.27
2022-08-31T04:10:25.818Z,9.10
2022-08-31T04:12:52.654Z,9.48
2022-08-31T04:15:19.530Z,9.38
2022-08-31T04:17:47.097Z,9.15
2022-08-31T04:20:14.662Z,9.02
2022-08-31T04:22:42.118Z,9.50
2022-08-31T04:25:10.584Z,8.57
2022-08-31T04:27:38.608Z,9.23
2022-08-31T04:30:08.129Z,9.40
2022-08-31T04:32:35.952Z,8.70
2022-08-31T04:35:03.817Z,8.93
2022-08-31T04:37:30.948Z,8.35
2022-08-31T04:39:59.264Z,8.35
2022-08-31T04:42:28.321Z,7.68
2022-08-31T04:44:55.145Z,8.38
2022-08-31T04:47:23.034Z,7.55
2022-08-31T04:49:49.973Z,8.20
2022-08-31T04:52:19.241Z,8.40
2022-08-31T04:54:50.703Z,8.00
2022-08-31T04:57:17.463Z,8.52
2022-08-31T04:59:44.195Z,7.95
2022-08-31T05:02:11.020Z,9.57
2022-08-31T05:04:37.975Z,8.32
2022-08-31T05:07:04.749Z,9.15
2022-08-31T05:09:31.556Z,9.25
2022-08-31T05:11:58.462Z,8.32
2022-08-31T05:14:25.605Z,10.00
2022-08-31T05:16:53.152Z,9.57
2022-08-31T05:19:21.043Z,9.18
2022-08-31T05:21:48.138Z,9.07
2022-08-31T05:24:22.973Z,8.50
2022-08-31T05:26:54.431Z,7.75
2022-08-31T05:29:23.823Z,9.15
2022-08-31T05:31:52.628Z,8.38
2022-08-31T05:34:21.017Z,8.65
2022-08-31T05:36:51.718Z,8.40
2022-08-31T05:39:18.502Z,8.88
2022-08-31T05:41:48.439Z,8.18
2022-08-31T05:44:16.879Z,8.93
2022-08-31T05:46:44.021Z,7.82
2022-08-31T05:49:11.677Z,7.40
2022-08-31T05:51:39.735Z,8.18
2022-08-31T05:54:07.842Z,8.25
2022-08-31T05:56:34.984Z,7.90
2022-08-31T05:59:01.892Z,9.48
2022-08-31T06:01:32.099Z,8.30
2022-08-31T06:04:00.948Z,8.23
2022-08-31T06:06:27.944Z,8.10
2022-08-31T06:08:54.747Z,8.30
2022-08-31T06:28:40.759Z,7.03
2022-08-31T06:31:12.327Z,6.18
2022-08-31T06:33:40.091Z,5.20
2022-08-31T06:36:12.386Z,5.43
2022-08-31T06:38:40.563Z,5.53
2022-08-31T06:41:25.660Z,6.43
2022-08-31T06:43:52.940Z,5.50
2022-08-31T06:46:20.835Z,4.43
2022-08-31T06:48:48.458Z,4.90
2022-08-31T06:51:15.225Z,4.40
2022-08-31T06:53:42.714Z,4.47
2022-08-31T06:56:21.397Z,4.28
2022-08-31T06:58:54.161Z,4.57
2022-08-31T07:01:35.703Z,5.35
2022-08-31T07:04:07.261Z,4.50
2022-08-31T07:06:39.947Z,4.63
2022-08-31T07:09:09.673Z,4.75
2022-08-31T07:11:44.079Z,4.55
2022-08-31T07:14:13.894Z,4.80
2022-08-31T07:16:42.198Z,5.28
2022-08-31T07:19:09.998Z,5.20
2022-08-31T07:21:41.332Z,5.38
2022-08-31T07:24:08.974Z,4.70
2022-08-31T07:26:47.870Z,4.60
2022-08-31T07:29:17.484Z,5.18
2022-08-31T07:31:47.558Z,5.22
2022-08-31T07:34:20.590Z,5.15
2022-08-31T07:37:06.734Z,6.20
2022-08-31T07:39:52.261Z,5.35
2022-08-31T07:42:32.742Z,5.05
2022-08-31T07:45:02.488Z,5.85
2022-08-31T07:47:30.316Z,5.33
2022-08-31T07:49:58.611Z,7.68
2022-08-31T07:52:31.394Z,6.32
2022-08-31T07:55:06.609Z,7.20
2022-08-31T07:57:42.737Z,6.05
2022-08-31T08:00:15.135Z,5.85
2022-08-31T08:02:46.443Z,6.45
2022-08-31T08:05:24.462Z,6.13
2022-08-31T08:07:58.667Z,5.90
2022-08-31T08:10:26.439Z,6.40
2022-08-31T08:13:04.946Z,5.53
2022-08-31T08:15:35.560Z,7.53
2022-08-31T08:18:04.459Z,5.47
2022-08-31T08:20:37.205Z,5.35
2022-08-31T08:23:14.631Z,5.38
2022-08-31T08:25:43.329Z,5.05
2022-08-31T08:31:06.171Z,4.75
2022-08-31T08:33:35.360Z,4.78
2022-08-31T08:36:07.789Z,4.85
2022-08-31T08:38:38.240Z,5.28
2022-08-31T08:41:14.384Z,5.50
2022-08-31T08:43:53.549Z,5.70
2022-08-31T08:46:40.397Z,5.90
2022-08-31T08:49:19.659Z,6.28
2022-08-31T08:51:49.827Z,5.40
2022-08-31T08:54:26.908Z,5.22
2022-08-31T08:56:53.662Z,6.28
2022-08-31T08:59:20.707Z,6.22
2022-08-31T09:01:49.652Z,5.80
2022-08-31T09:04:31.036Z,6.60
2022-08-31T09:07:27.337Z,5.32
2022-08-31T09:10:03.108Z,6.50
2022-08-31T09:13:15.227Z,5.22
2022-08-31T09:16:20.727Z,5.93
2022-08-31T09:19:03.400Z,5.55
2022-08-31T09:21:37.186Z,4.57
2022-08-31T09:24:05.253Z,4.80
2022-08-31T09:26:56.399Z,4.63
2022-08-31T09:29:30.345Z,3.10
2022-08-31T09:32:05.975Z,3.70
2022-08-31T09:34:37.453Z,4.28
2022-08-31T09:37:21.615Z,6.22
2022-08-31T09:39:50.704Z,3.80
2022-08-31T09:42:20.317Z,3.97
2022-08-31T09:44:50.899Z,4.97
2022-08-31T09:47:48.133Z,3.60
2022-08-31T09:50:35.579Z,3.92
2022-08-31T09:53:43.318Z,3.45
2022-08-31T09:56:15.881Z,3.58
2022-08-31T09:58:50.934Z,12.18
2022-08-31T10:01:45.102Z,11.93
2022-08-31T10:04:18.240Z,5.18
2022-08-31T10:06:48.475Z,4.30
2022-08-31T10:09:36.289Z,4.93
2022-08-31T10:12:10.814Z,4.97
2022-08-31T10:15:04.158Z,4.05
2022-08-31T10:18:12.030Z,4.22
2022-08-31T10:20:46.604Z,4.80
2022-08-31T10:23:56.401Z,8.52
2022-08-31T10:26:46.593Z,5.10
2022-08-31T10:29:44.391Z,4.10
2022-08-31T10:32:35.608Z,4.35
2022-08-31T10:35:28.754Z,6.80
2022-08-31T10:38:08.680Z,4.32
2022-08-31T10:40:47.668Z,4.13
2022-08-31T10:43:21.586Z,4.38
2022-08-31T10:45:52.534Z,3.88
2022-08-31T10:50:53.391Z,4.35
2022-08-31T10:53:50.771Z,3.92
2022-08-31T10:56:24.090Z,3.72
2022-08-31T10:59:09.619Z,4.07
2022-08-31T11:01:42.443Z,4.07
2022-08-31T11:04:34.580Z,3.53
2022-08-31T11:07:08.481Z,3.92
2022-08-31T11:09:45.065Z,3.80
2022-08-31T11:12:23.955Z,3.42
2022-08-31T11:14:53.473Z,3.30
2022-08-31T11:17:20.180Z,3.42
2022-08-31T11:19:51.371Z,3.63
2022-08-31T11:22:41.334Z,3.38
2022-08-31T11:25:26.748Z,3.92
2022-08-31T11:28:05.944Z,3.53
2022-08-31T11:30:41.751Z,4.03
2022-08-31T11:33:19.936Z,3.70
2022-08-31T11:35:49.600Z,3.47
2022-08-31T11:39:13.586Z,4.25
2022-08-31T11:41:51.207Z,3.75
2022-08-31T11:44:29.985Z,3.53
2022-08-31T11:47:28.906Z,3.45
2022-08-31T11:50:04.056Z,3.30
2022-08-31T11:52:41.211Z,4.55
2022-08-31T11:55:22.449Z,3.40
2022-08-31T11:58:07.501Z,3.45
2022-08-31T12:01:03.141Z,3.47
2022-08-31T12:03:52.685Z,3.70
2022-08-31T12:06:26.721Z,3.45
2022-08-31T12:09:11.357Z,3.85
2022-08-31T12:11:41.997Z,3.55
2022-08-31T12:14:21.868Z,4.07
2022-08-31T12:17:18.105Z,3.67
2022-08-31T12:20:01.726Z,3.38
2022-08-31T12:22:53.378Z,4.30
2022-08-31T12:25:49.357Z,3.70
2022-08-31T12:28:32.424Z,3.33
2022-08-31T12:31:06.022Z,3.87
2022-08-31T12:33:36.704Z,3.70
2022-08-31T12:36:18.496Z,3.60
2022-08-31T12:38:46.329Z,3.97
2022-08-31T12:41:14.722Z,4.20
2022-08-31T12:43:49.226Z,4.10
2022-08-31T12:46:37.726Z,4.20
2022-08-31T12:49:37.454Z,3.70
2022-08-31T12:52:23.985Z,3.45
2022-08-31T12:55:09.513Z,4.03
2022-08-31T12:58:02.447Z,3.45
2022-08-31T13:00:33.466Z,3.92
2022-08-31T13:03:14.545Z,3.30
2022-08-31T13:05:41.980Z,3.30
2022-08-31T13:08:24.221Z,3.80
2022-08-31T13:10:51.820Z,2.80
2022-08-31T13:13:27.654Z,3.40
2022-08-31T13:16:04.825Z,3.10
2022-08-31T13:18:31.743Z,3.53
2022-08-31T13:21:06.090Z,2.90
2022-08-31T13:23:40.945Z,3.50
2022-08-31T13:26:27.994Z,3.42
2022-08-31T13:28:57.615Z,3.45
2022-08-31T13:31:31.664Z,3.55
2022-08-31T13:34:07.532Z,3.90
2022-08-31T13:36:39.957Z,3.90
2022-08-31T13:39:28.908Z,3.13
2022-08-31T13:42:12.815Z,2.83
2022-08-31T13:44:46.285Z,3.30
2022-08-31T13:47:23.661Z,3.00
2022-08-31T13:49:53.345Z,3.10
2022-08-31T13:52:23.944Z,3.15
2022-08-31T13:55:09.982Z,3.60
2022-08-31T13:57:38.575Z,3.03
2022-08-31T14:00:32.579Z,2.95
2022-08-31T14:03:32.226Z,3.20
2022-08-31T14:06:26.109Z,3.20
2022-08-31T14:09:17.081Z,3.00
2022-08-31T14:11:53.570Z,2.75
2022-08-31T14:14:35.710Z,2.45
2022-08-31T14:17:03.541Z,2.70
2022-08-31T14:19:32.877Z,2.92
2022-08-31T14:22:28.250Z,2.85
2022-08-31T14:24:55.799Z,2.90
2022-08-31T14:27:23.742Z,2.70
2022-08-31T14:29:52.356Z,2.80
2022-08-31T14:32:22.170Z,2.65
2022-08-31T14:34:51.278Z,2.92
2022-08-31T14:37:23.497Z,2.67
2022-08-31T14:39:55.343Z,2.80
2022-08-31T14:42:36.495Z,3.03
2022-08-31T14:45:07.019Z,2.70
2022-08-31T14:47:44.193Z,2.30
2022-08-31T14:50:18.292Z,2.60
2022-08-31T14:52:53.909Z,2.50
2022-08-31T14:55:22.387Z,2.83
2022-08-31T14:57:58.403Z,2.78
2022-08-31T15:00:26.398Z,2.83
2022-08-31T15:02:54.005Z,3.33
2022-08-31T15:05:24.078Z,3.03
2022-08-31T15:07:53.164Z,2.60
2022-08-31T15:10:24.463Z,2.17
2022-08-31T15:12:52.647Z,2.50
2022-08-31T15:15:20.987Z,3.20
2022-08-31T15:17:51.485Z,2.60
2022-08-31T15:20:21.191Z,2.30
2022-08-31T15:22:48.481Z,2.45
2022-08-31T15:25:17.212Z,3.00
2022-08-31T15:27:44.535Z,2.50
2022-08-31T15:30:19.007Z,2.45
2022-08-31T15:32:48.269Z,2.40
2022-08-31T15:35:23.582Z,2.85
2022-08-31T15:37:59.742Z,3.10
2022-08-31T15:40:29.550Z,2.80
2022-08-31T15:42:56.880Z,3.22
2022-08-31T15:45:25.441Z,3.75
2022-08-31T15:48:10.584Z,2.70
2022-08-31T15:50:37.377Z,2.88
2022-08-31T15:53:10.019Z,2.47
2022-08-31T15:55:40.966Z,3.00
2022-08-31T15:58:09.829Z,2.90
2022-08-31T16:00:37.555Z,2.42
2022-08-31T16:03:06.329Z,2.72
2022-08-31T16:05:39.388Z,2.45
2022-08-31T16:08:11.433Z,2.92
2022-08-31T16:10:46.635Z,2.70
2022-08-31T16:13:16.018Z,2.80
2022-08-31T16:15:50.634Z,2.67
2022-08-31T16:18:19.504Z,2.90
2022-08-31T16:20:50.420Z,3.08
2022-08-31T16:25:48.230Z,2.40
2022-08-31T16:28:16.295Z,2.47
2022-08-31T16:30:43.967Z,2.53
2022-08-31T16:33:12.233Z,2.40
2022-08-31T16:35:39.698Z,2.67
2022-08-31T16:38:07.321Z,2.17
2022-08-31T16:40:35.600Z,2.65
2022-08-31T16:43:02.816Z,2.42
2022-08-31T16:45:29.663Z,2.05
2022-08-31T16:48:16.438Z,2.60
2022-08-31T16:50:47.730Z,2.08
2022-08-31T16:53:18.315Z,2.40
2022-08-31T16:55:47.562Z,2.78
2022-08-31T16:58:29.651Z,2.30
2022-08-31T17:01:12.801Z,2.80
2022-08-31T17:03:41.828Z,2.83
2022-08-31T17:06:08.788Z,2.90
2022-08-31T17:08:44.374Z,2.63
2022-08-31T17:11:32.247Z,2.80
2022-08-31T17:14:01.708Z,2.53
2022-08-31T17:16:34.948Z,3.25
2022-08-31T17:19:04.549Z,2.83
2022-08-31T17:21:32.083Z,2.63
2022-08-31T17:24:04.200Z,3.53
2022-08-31T17:26:35.197Z,3.22
2022-08-31T17:31:42.452Z,2.88
2022-08-31T17:34:27.044Z,2.85
2022-08-31T17:36:55.440Z,2.75
2022-08-31T17:39:23.339Z,3.35
2022-08-31T17:41:51.546Z,2.88
2022-08-31T17:44:20.546Z,2.60
2022-08-31T17:46:50.189Z,3.30
2022-08-31T17:49:20.847Z,3.08
2022-08-31T17:51:49.611Z,3.38
2022-08-31T17:54:20.139Z,3.05
2022-08-31T17:56:53.687Z,2.65
2022-08-31T17:59:28.436Z,3.28
2022-08-31T18:01:57.037Z,3.35
2022-08-31T18:04:25.858Z,3.40
2022-08-31T18:06:55.198Z,3.00
2022-08-31T18:09:28.617Z,2.95
2022-08-31T18:11:56.088Z,3.10
2022-08-31T18:14:26.703Z,3.13
2022-08-31T18:16:55.908Z,2.70
2022-08-31T18:19:27.595Z,4.15
2022-08-31T18:21:58.866Z,3.13
2022-08-31T18:24:26.195Z,4.40
2022-08-31T18:26:53.402Z,3.58
2022-08-31T18:29:25.013Z,4.43
2022-08-31T18:31:54.328Z,3.75
2022-08-31T18:34:23.968Z,3.47
2022-08-31T18:36:53.391Z,3.50
2022-08-31T18:39:47.747Z,2.70
2022-08-31T18:42:32.263Z,3.92
2022-08-31T18:45:18.585Z,3.08
2022-08-31T18:48:07.066Z,3.53
2022-08-31T18:50:37.235Z,3.75
2022-08-31T18:53:10.821Z,3.88
2022-08-31T18:55:38.633Z,3.45
2022-08-31T18:58:05.465Z,3.25
2022-08-31T19:00:33.386Z,3.00
2022-08-31T19:03:02.460Z,3.25
2022-08-31T19:05:31.746Z,3.47
2022-08-31T19:08:00.788Z,3.38
2022-08-31T19:10:28.226Z,3.35
2022-08-31T19:12:58.738Z,3.28
2022-08-31T19:15:35.400Z,3.60
2022-08-31T19:18:05.681Z,3.72
2022-08-31T19:20:33.676Z,4.45
2022-08-31T19:23:00.740Z,4.40
2022-08-31T19:25:27.903Z,3.83
2022-08-31T19:27:56.029Z,4.10
2022-08-31T19:30:27.927Z,3.85
2022-08-31T19:32:56.782Z,3.78
2022-08-31T19:35:27.025Z,4.28
2022-08-31T19:37:56.780Z,3.90
2022-08-31T19:40:43.305Z,4.00
2022-08-31T19:46:16.024Z,4.65
2022-08-31T19:48:44.861Z,4.05
2022-08-31T19:51:14.950Z,5.55
2022-08-31T19:53:46.255Z,4.75
2022-08-31T19:58:49.173Z,5.05
2022-08-31T20:03:48.286Z,6.50
2022-08-31T20:06:17.154Z,9.65
2022-08-31T20:08:47.906Z,4.95
2022-08-31T20:11:21.302Z,5.38
2022-08-31T20:13:49.407Z,6.30
2022-08-31T20:16:17.892Z,5.82
2022-08-31T20:18:46.572Z,5.68
2022-08-31T20:21:17.411Z,5.80
2022-08-31T20:23:45.561Z,5.18
2022-08-31T20:26:12.465Z,6.40
2022-08-31T20:28:40.825Z,6.63
2022-08-31T20:31:11.220Z,5.72
2022-08-31T20:33:39.019Z,6.40
2022-08-31T20:36:22.794Z,6.88
2022-08-31T20:38:57.083Z,6.20
2022-08-31T20:41:25.403Z,6.30
2022-08-31T20:43:52.324Z,6.32
2022-08-31T20:46:38.023Z,6.30
2022-08-31T20:49:23.537Z,7.97
2022-08-31T20:51:51.257Z,6.32
2022-08-31T20:54:18.266Z,7.38
2022-08-31T20:56:45.748Z,7.70
2022-08-31T20:59:12.517Z,7.72
2022-08-31T21:01:40.541Z,7.57
2022-08-31T21:04:08.328Z,7.45
2022-08-31T21:06:37.199Z,7.85
2022-08-31T21:09:04.135Z,8.27
2022-08-31T21:11:35.753Z,8.05
2022-08-31T21:14:03.485Z,10.82
2022-08-31T21:16:32.399Z,10.52
2022-08-31T21:18:59.206Z,8.60
2022-08-31T21:21:26.552Z,8.20
2022-08-31T21:23:53.338Z,8.27
2022-08-31T21:26:24.517Z,10.18
2022-08-31T21:28:54.076Z,8.77
2022-08-31T21:31:29.035Z,9.13
2022-08-31T21:34:02.024Z,10.13
2022-08-31T21:36:32.839Z,8.93
2022-08-31T21:39:00.030Z,9.25
2022-08-31T21:41:28.773Z,8.15
2022-08-31T21:43:57.176Z,8.68
2022-08-31T21:46:27.001Z,8.77
2022-08-31T21:48:56.516Z,8.25
2022-08-31T21:51:26.846Z,8.57
2022-08-31T21:53:55.783Z,8.15
2022-08-31T21:56:25.023Z,9.50
2022-08-31T21:58:51.927Z,9.73
2022-08-31T22:01:20.382Z,10.27
2022-08-31T22:03:48.467Z,8.40
2022-08-31T22:06:26.805Z,9.18
2022-08-31T22:09:00.386Z,7.80
2022-08-31T22:11:30.549Z,8.20
2022-08-31T22:13:59.183Z,8.55
2022-08-31T22:16:26.647Z,10.55
2022-08-31T22:19:01.324Z,9.73
2022-08-31T22:21:32.314Z,7.78
2022-08-31T22:24:02.111Z,10.95
2022-08-31T22:26:30.521Z,9.55
2022-08-31T22:28:57.456Z,8.02
2022-08-31T22:31:25.386Z,8.07
2022-08-31T22:33:52.394Z,7.93
2022-08-31T22:36:31.908Z,7.60
2022-08-31T22:39:11.356Z,8.32
2022-08-31T22:41:40.704Z,9.18
2022-08-31T22:44:10.669Z,8.38
2022-08-31T22:46:38.477Z,8.63
2022-08-31T22:49:06.258Z,8.40
2022-08-31T22:51:33.756Z,9.27
2022-08-31T22:54:00.521Z,8.60
2022-08-31T22:56:30.264Z,9.88
2022-08-31T22:58:59.823Z,9.52
2022-08-31T23:01:33.702Z,9.55
2022-08-31T23:04:06.125Z,9.50
2022-08-31T23:06:34.791Z,8.95
2022-08-31T23:09:02.888Z,9.07
2022-08-31T23:11:30.042Z,9.73
2022-08-31T23:14:00.296Z,9.07
2022-08-31T23:16:33.602Z,9.50
2022-08-31T23:19:12.303Z,11.27
2022-08-31T23:21:46.111Z,9.90
2022-08-31T23:24:33.681Z,11.38
2022-08-31T23:27:04.628Z,11.57
2022-08-31T23:29:34.939Z,10.95
2022-08-31T23:32:03.081Z,10.38
2022-08-31T23:34:30.422Z,10.60
2022-08-31T23:36:57.718Z,10.40
2022-08-31T23:39:24.799Z,10.32
2022-08-31T23:41:53.337Z,11.13
2022-08-31T23:44:21.293Z,11.02
2022-08-31T23:46:49.267Z,10.95
2022-08-31T23:49:18.749Z,10.45
2022-08-31T23:51:46.027Z,10.82
2022-08-31T23:54:15.828Z,10.88
2022-08-31T23:56:46.076Z,10.90
2022-08-31T23:59:19.807Z,10.20
